• Join FlightAware (Why Join?)
  • Login
  • US Flag 
10:09AM EDT


 

Airport Tracker/Info


-or-


 

Live Flight TrackerFlight Track Log ✈ UAL4849 ✈ 20-Apr-2013 ✈ KROC - KEWR

Flight Track Log - Related Links

Times and Time Zones

All times are in EDT time to prevent confusion due to time zone crossing. See the UAL4849 flight status page for this flight to view local times or setup timezone preferences in your user account.

Time Position Orientation Groundspeed Altitude Reporting Facility
EDT Latitude Longitude Course Direction KTS MPH feet Rate Location/Type
10:46AM 43.1036 -77.6914 124° Southeast 126 145 1,200  Level Cleveland Center
10:47AM 43.0653 -77.6647 153° Southeast 221 254 2,500 1,200 Climbing Cleveland Center
10:48AM 43.0517 -77.6197 112° Southeast 211 243 3,400 1,380 Climbing Cleveland Center
10:49AM 43.0289 -77.5469 113° Southeast 211 243 4,800 1,140 Climbing Cleveland Center
10:50AM 42.9997 -77.4717 118° Southeast 217 250 5,700 1,140 Climbing Cleveland Center
10:51AM 42.8862 -77.1389 124° Southeast  Level FlightAware Approximate
10:51AM 42.9706 -77.3939 117° Southeast 223 257 7,100  Level Cleveland Center
10:52AM 42.9433 -77.3158 115° Southeast 223 257 8,400 1,200 Climbing Cleveland Center
10:53AM 42.9119 -77.2381 119° Southeast 223 257 9,600 1,080 Climbing Cleveland Center
10:55AM 42.8608 -77.0881 115° Southeast 239 275 11,500 1,020 Climbing New York Center
10:55AM 42.8297 -77.0086 118° Southeast 239 275 12,500 780 Climbing New York Center
10:56AM 42.7964 -76.9264 119° Southeast 239 275 13,100 240 Climbing New York Center
10:57AM 42.7553 -76.8378 124° Southeast 256 295 13,000 -120 Descending New York Center
10:58AM 42.7523 -76.8379 124° Southeast  Level FlightAware Approximate
10:58AM 42.7161 -76.7439 120° Southeast 278 320 12,900  Level New York Center
11:00AM 42.6731 -76.6497 122° Southeast 285 328 13,100  Climbing New York Center
11:01AM 42.6297 -76.5556 122° Southeast 291 335 13,000 -60 Descending New York Center
11:01AM 42.5961 -76.4792 121° Southeast 291 335 13,000  Level New York Center
11:02AM 42.5508 -76.3836 123° Southeast 290 334 13,000  Level Boston Center
11:03AM 42.5100 -76.2936 122° Southeast 276 318 13,000  Level Boston Center
11:04AM 42.4736 -76.2039 119° Southeast 283 326 13,000  Level Boston Center
11:05AM 42.4306 -76.1114 122° Southeast 289 333 13,000  Level Boston Center
11:06AM 42.3858 -76.0158 122° Southeast 301 346 13,000  Level Boston Center
11:07AM 42.3428 -75.9208 121° Southeast 291 335 13,000  Level Boston Center
11:08AM 42.2997 -75.8256 121° Southeast 291 335 13,000  Level Boston Center
11:09AM 42.2508 -75.7219 122° Southeast 291 335 13,000  Level Boston Center
11:10AM 42.2097 -75.6272 120° Southeast 291 335 13,000  Level Boston Center
11:11AM 42.1664 -75.5356 123° Southeast 285 328 13,000  Level Boston Center
11:12AM 42.1250 -75.4439 121° Southeast 285 328 13,000  Level Boston Center
11:13AM 42.0817 -75.3522 122° Southeast 285 328 13,000  Level Boston Center
11:14AM 42.0403 -75.2581 121° Southeast 285 328 13,000  Level Boston Center
11:15AM 42.0031 -75.1586 117° Southeast 285 328 13,000 -180 Level Boston Center
11:16AM 41.9717 -75.0706 116° Southeast 296 341 12,700 -720 Descending Boston Center
11:17AM 41.9264 -74.9572 118° Southeast 304 350 11,600 -1,080 Descending Boston Center
11:18AM 41.8867 -74.8692 121° Southeast 309 356 10,600 -1,200 Descending Boston Center
11:19AM 41.8106 -74.8244 156° South 269 310 9,200 -1,260 Descending Boston Center
11:20AM 41.7486 -74.7858 155° Southeast 269 310 8,100 -1,140 Descending Boston Center
11:21AM 41.6744 -74.7442 157° South 269 310 7,000 -600 Descending Boston Center
11:22AM 41.6147 -74.7086 156° South 269 310 7,000 -120 Level Boston Center
11:23AM 41.5428 -74.6700 158° South 269 310 6,800 -600 Descending Boston Center
11:24AM 41.4803 -74.6622 175° South 259 298 5,900 -420 Descending Boston Center
11:25AM 41.4056 -74.6486 172° South 253 291 6,000 60 Climbing Boston Center
11:26AM 41.3333 -74.6333 171° South 248 285 6,100 -240 Climbing New York TRACON
11:27AM 41.2667 -74.6167 169° South 244 281 5,600 -600 Descending New York TRACON
11:28AM 41.2000 -74.5667 151° Southeast 264 304 5,000 -360 Descending New York TRACON
11:29AM 41.1667 -74.5000 124° Southeast 262 302 5,000  Level New York TRACON
11:30AM 41.1000 -74.4167 137° Southeast 260 299 5,000  Level New York TRACON
11:31AM 41.0667 -74.3667 131° Southeast 250 288 5,000  Level New York TRACON
11:32AM 41.0167 -74.3000 135° Southeast 248 285 5,000 -420 Level New York TRACON
11:33AM 40.9667 -74.2167 128° Southeast 251 289 4,200 -540 Descending New York TRACON
11:34AM 40.9167 -74.1667 143° Southeast 240 276 4,000 -360 Descending New York TRACON
11:35AM 40.8833 -74.1000 123° Southeast 211 243 3,600 -720 Descending New York TRACON
11:36AM 40.8333 -74.0833 166° South 196 226 2,600 -780 Descending New York TRACON
11:37AM 40.7833 -74.0833 180° South 184 212 2,100 -540 Descending New York TRACON